Time;durP1;ratioP1;P1;durP2;ratioP2;P2;SDS_P1;SDS_P2;PMS_P1;PMS_P2;Temp;Humidity;BMP_temperature;BMP_pressure;BME280_temperature;BME280_humidity;BME280_pressure;Samples;Min_cycle;Max_cycle;Signal;HPM_P1;HPM_P2
2021/11/19 00:00:57;;;;;;;21.58;9.73;;;;;;;10.70;59.47;100150.16;5092470;28;20028;-53
2021/11/19 00:03:24;;;;;;;18.90;9.65;;;;;;;10.72;59.41;100157.88;5094078;28;20024;-53
2021/11/19 00:05:51;;;;;;;13.73;8.75;;;;;;;10.66;59.77;100143.59;5093674;28;20056;-53
2021/11/19 00:08:25;;;;;;;11.35;8.57;;;;;;;10.40;59.59;100143.75;5093638;28;20024;-53
2021/11/19 00:11:01;;;;;;;14.23;10.63;;;;;;;9.77;60.80;100152.94;5093503;28;20035;-53
2021/11/19 00:13:28;;;;;;;15.23;9.80;;;;;;;9.33;62.02;100153.88;5093565;28;20032;-53
2021/11/19 00:15:58;;;;;;;16.60;9.85;;;;;;;9.22;62.45;100153.38;5092085;28;20405;-53
2021/11/19 00:18:25;;;;;;;11.50;9.18;;;;;;;9.16;63.02;100160.03;5092174;28;20028;-53
2021/11/19 00:20:51;;;;;;;11.20;9.10;;;;;;;8.99;63.57;100161.72;5093335;28;20444;-53
2021/11/19 00:23:18;;;;;;;15.77;9.43;;;;;;;8.96;64.19;100162.84;5093339;28;20095;-54
2021/11/19 00:25:45;;;;;;;14.95;8.20;;;;;;;9.38;63.88;100153.44;5091955;28;20085;-53
2021/11/19 00:28:12;;;;;;;17.15;9.45;;;;;;;9.80;62.69;100156.06;5093085;28;20046;-54
2021/11/19 00:30:39;;;;;;;9.98;8.48;;;;;;;9.90;61.82;100153.31;5093106;28;20016;-53
2021/11/19 00:33:06;;;;;;;12.75;9.10;;;;;;;9.76;61.82;100149.50;5093113;28;20107;-53
2021/11/19 00:35:37;;;;;;;20.08;9.57;;;;;;;9.74;62.08;100154.09;5093075;28;20049;-53
2021/11/19 00:38:05;;;;;;;17.15;9.65;;;;;;;9.80;62.14;100153.44;5093153;28;20024;-53
2021/11/19 00:40:34;;;;;;;18.38;9.02;;;;;;;9.82;61.89;100153.31;5092999;28;20028;-53
2021/11/19 00:43:01;;;;;;;20.42;9.60;;;;;;;9.63;61.96;100154.38;5092973;28;20428;-53
2021/11/19 00:45:27;;;;;;;14.52;9.48;;;;;;;9.52;62.01;100157.28;5092920;28;20095;-53
2021/11/19 00:47:54;;;;;;;13.13;9.88;;;;;;;9.50;62.24;100157.44;5092866;28;20048;-53
2021/11/19 00:50:24;;;;;;;83.85;66.32;;;;;;;9.51;62.54;100145.94;5092622;28;20024;-53
2021/11/19 00:52:50;;;;;;;63.38;45.85;;;;;;;9.49;62.39;100145.28;5093031;28;20120;-53
2021/11/19 00:55:15;;;;;;;27.90;21.38;;;;;;;9.53;62.34;100151.84;5092734;28;20099;-53
2021/11/19 00:57:42;;;;;;;22.27;14.43;;;;;;;9.57;62.01;100149.75;5091359;28;20028;-53
2021/11/19 01:00:15;;;;;;;17.52;9.95;;;;;;;9.60;62.02;100149.44;5092591;28;20020;-53
2021/11/19 01:02:41;;;;;;;19.40;11.60;;;;;;;9.62;62.28;100155.34;5092696;28;20485;-53
2021/11/19 01:05:08;;;;;;;17.65;10.35;;;;;;;9.63;61.89;100146.50;5092535;28;20024;-53
2021/11/19 01:07:33;;;;;;;14.35;10.38;;;;;;;9.51;62.46;100145.94;5092519;28;20509;-53
2021/11/19 01:10:11;;;;;;;16.67;11.27;;;;;;;9.44;62.60;100147.56;5092442;28;20020;-53
2021/11/19 01:12:38;;;;;;;17.73;11.13;;;;;;;9.23;62.80;100149.75;5092494;28;20398;-53
2021/11/19 01:15:15;;;;;;;14.43;11.50;;;;;;;8.96;63.13;100147.13;5091026;28;20024;-53
2021/11/19 01:17:55;;;;;;;17.08;12.50;;;;;;;8.77;64.14;100150.78;5091126;28;20492;-53
2021/11/19 01:20:42;;;;;;;19.13;11.95;;;;;;;8.83;64.60;100146.72;5092385;28;20031;-53
2021/11/19 01:23:11;;;;;;;21.40;12.35;;;;;;;8.95;64.34;100142.88;5091001;28;20032;-52
2021/11/19 01:25:43;;;;;;;18.40;12.10;;;;;;;9.03;64.22;100141.28;5092215;28;20016;-53
2021/11/19 01:28:10;;;;;;;16.83;11.02;;;;;;;9.14;64.25;100141.03;5092032;28;20064;-52
2021/11/19 01:31:04;;;;;;;16.88;10.98;;;;;;;9.20;64.23;100136.00;5092015;28;20103;-52
2021/11/19 01:33:29;;;;;;;17.65;11.18;;;;;;;9.27;63.81;100143.22;5085161;28;20402;-53
2021/11/19 01:35:56;;;;;;;27.98;13.57;;;;;;;9.25;63.59;100130.28;5090726;28;20038;-53
2021/11/19 01:38:21;;;;;;;13.18;11.63;;;;;;;9.04;64.04;100145.56;5092133;28;20012;-53
2021/11/19 01:40:52;;;;;;;19.67;13.95;;;;;;;8.89;65.11;100143.47;5092008;28;20547;-53
2021/11/19 01:43:18;;;;;;;20.45;13.15;;;;;;;8.82;65.11;100150.31;5090728;28;20032;-53
2021/11/19 01:45:48;;;;;;;23.77;13.48;;;;;;;8.86;65.51;100142.97;5092000;28;20024;-53
2021/11/19 01:48:22;;;;;;;16.67;12.27;;;;;;;8.90;65.84;100146.94;5091025;28;20028;-53
2021/11/19 01:51:01;;;;;;;16.02;12.27;;;;;;;9.05;65.25;100142.75;5092011;28;20027;-53
2021/11/19 01:53:49;;;;;;;27.30;16.15;;;;;;;9.06;65.05;100143.59;5092025;28;20016;-53
2021/11/19 01:56:24;;;;;;;16.70;12.30;;;;;;;8.93;64.81;100142.22;5091892;28;20046;-53
2021/11/19 01:58:54;;;;;;;20.00;14.40;;;;;;;8.85;65.15;100138.72;5091879;28;20451;-53
2021/11/19 02:01:29;;;;;;;20.40;14.50;;;;;;;8.75;65.56;100129.16;5091851;28;20113;-53
2021/11/19 02:03:59;;;;;;;21.80;15.40;;;;;;;8.67;66.70;100128.28;5091912;28;20061;-53
2021/11/19 02:06:46;;;;;;;29.67;15.57;;;;;;;8.68;66.50;100129.94;5091800;28;20493;-53
2021/11/19 02:09:33;;;;;;;20.30;13.68;;;;;;;8.80;66.66;100126.91;5092036;28;20024;-53
2021/11/19 02:12:30;;;;;;;20.48;15.00;;;;;;;9.05;66.08;100128.84;5091809;28;20028;-53
2021/11/19 02:15:23;;;;;;;22.90;15.95;;;;;;;9.02;65.28;100126.56;5091990;28;20020;-53
2021/11/19 02:17:52;;;;;;;22.58;13.63;;;;;;;9.03;65.41;100120.34;5090406;28;20043;-53
2021/11/19 02:20:30;;;;;;;19.27;13.77;;;;;;;9.05;65.59;100121.00;5092155;28;20511;-53
2021/11/19 02:23:00;;;;;;;20.27;13.55;;;;;;;9.11;65.32;100115.13;5095761;28;20036;-53
2021/11/19 02:25:46;;;;;;;37.30;14.95;;;;;;;9.08;65.27;100120.69;5095616;28;20024;-53
2021/11/19 02:28:20;;;;;;;27.98;15.32;;;;;;;9.08;65.33;100126.75;5095414;28;20048;-53
2021/11/19 02:31:18;;;;;;;26.30;14.82;;;;;;;9.03;65.73;100123.75;5095543;28;20032;-53
2021/11/19 02:33:46;;;;;;;17.38;13.88;;;;;;;8.91;65.69;100130.25;5087664;28;20036;-53
2021/11/19 02:36:18;;;;;;;21.15;14.23;;;;;;;8.88;66.00;100130.56;5095399;28;20524;-53
2021/11/19 02:39:04;;;;;;;22.80;13.82;;;;;;;8.96;66.17;100136.66;5095522;28;20028;-52
2021/11/19 02:41:32;;;;;;;21.83;13.48;;;;;;;9.04;65.29;100130.66;5095369;28;20039;-53
2021/11/19 02:44:02;;;;;;;24.00;14.98;;;;;;;8.99;65.62;100139.00;5095288;28;20020;-53
2021/11/19 02:46:40;;;;;;;27.52;13.38;;;;;;;8.97;66.13;100129.63;5095190;28;20562;-53
2021/11/19 02:49:07;;;;;;;28.15;16.27;;;;;;;9.06;66.01;100118.22;5095182;28;20387;-53
2021/11/19 02:51:35;;;;;;;29.63;14.68;;;;;;;8.96;64.92;100123.56;5095100;28;20024;-53
2021/11/19 02:54:03;;;;;;;28.08;17.02;;;;;;;8.68;65.96;100120.28;5095111;28;20086;-53
2021/11/19 02:56:30;;;;;;;54.08;15.77;;;;;;;8.75;66.35;100126.56;5095042;28;20049;-53
2021/11/19 02:58:59;;;;;;;28.38;14.25;;;;;;;8.75;66.53;100117.84;5094955;28;20489;-53
2021/11/19 03:01:32;;;;;;;23.63;14.85;;;;;;;8.82;66.53;100123.31;5093553;28;20024;-53
2021/11/19 03:04:09;;;;;;;40.72;16.80;;;;;;;8.79;66.19;100117.41;5094999;28;20091;-53
2021/11/19 03:06:38;;;;;;;25.25;14.55;;;;;;;8.67;66.28;100125.66;5093547;28;20047;-53
2021/11/19 03:09:06;;;;;;;37.78;17.65;;;;;;;8.54;66.61;100119.03;5094718;28;20017;-52
2021/11/19 03:11:32;;;;;;;27.63;14.60;;;;;;;8.66;67.33;100126.66;5094665;28;20089;-53
2021/11/19 03:13:59;;;;;;;23.90;15.30;;;;;;;8.85;66.61;100112.53;5094708;28;20016;-53
2021/11/19 03:16:27;;;;;;;31.42;15.73;;;;;;;8.88;66.35;100115.66;5094686;28;20024;-53
2021/11/19 03:18:53;;;;;;;24.50;15.98;;;;;;;8.87;66.18;100110.56;5094605;28;20027;-53
2021/11/19 03:21:19;;;;;;;40.60;18.38;;;;;;;8.76;66.17;100116.91;5094546;28;20024;-53
2021/11/19 03:23:47;;;;;;;38.92;16.75;;;;;;;8.79;66.49;100104.34;5094495;28;20028;-53
2021/11/19 03:26:13;;;;;;;34.10;16.50;;;;;;;8.76;66.49;100106.44;5094216;28;20103;-53
2021/11/19 03:28:44;;;;;;;24.77;16.50;;;;;;;8.75;66.97;100104.78;5094500;28;20035;-53
2021/11/19 03:31:13;;;;;;;26.00;13.55;;;;;;;8.78;66.78;100105.28;5093204;28;20516;-52
2021/11/19 03:33:42;;;;;;;43.83;15.43;;;;;;;8.82;66.84;100099.75;5094254;28;20073;-53
2021/11/19 03:36:10;;;;;;;59.95;21.92;;;;;;;8.84;66.60;100103.84;5094212;28;20016;-53
2021/11/19 03:38:39;;;;;;;50.80;18.70;;;;;;;8.68;67.30;100107.19;5092936;28;20027;-53
2021/11/19 03:41:07;;;;;;;38.80;16.60;;;;;;;8.71;67.26;100103.44;5094182;28;20027;-53
2021/11/19 03:43:47;;;;;;;28.38;14.80;;;;;;;8.76;67.14;100109.03;5092753;28;20442;-53
2021/11/19 03:46:30;;;;;;;41.95;16.83;;;;;;;8.90;66.67;100108.47;5094157;28;20374;-53
2021/11/19 03:48:56;;;;;;;63.13;16.35;;;;;;;8.83;66.76;100107.44;5094027;28;20043;-53
2021/11/19 03:51:34;;;;;;;39.38;15.68;;;;;;;8.66;67.09;100117.00;5094010;28;20016;-53
2021/11/19 03:54:00;;;;;;;28.25;17.38;;;;;;;8.51;67.54;100113.25;5094006;28;20493;-53
2021/11/19 03:56:26;;;;;;;44.75;17.80;;;;;;;8.55;67.51;100110.22;5093805;28;20085;-53
2021/11/19 03:58:53;;;;;;;32.22;15.75;;;;;;;8.54;66.92;100113.78;5093836;28;20028;-53
2021/11/19 04:01:25;;;;;;;47.78;16.63;;;;;;;8.44;66.80;100114.84;5093805;28;20020;-53
2021/11/19 04:03:52;;;;;;;44.08;15.65;;;;;;;8.34;67.86;100117.53;5093823;28;20035;-53
2021/11/19 04:06:21;;;;;;;34.80;15.75;;;;;;;8.44;68.01;100120.91;5093723;28;20023;-53
2021/11/19 04:08:47;;;;;;;50.97;14.73;;;;;;;8.53;67.99;100117.41;5093505;28;20016;-53
2021/11/19 04:11:13;;;;;;;84.93;15.32;;;;;;;8.62;67.14;100109.59;5093562;28;20020;-53
2021/11/19 04:13:40;;;;;;;37.03;14.45;;;;;;;8.56;67.63;100124.09;5093569;28;20031;-53
2021/11/19 04:16:14;;;;;;;31.33;14.63;;;;;;;8.59;67.50;100115.94;5093475;28;20020;-52
2021/11/19 04:18:40;;;;;;;116.60;75.32;;;;;;;8.55;68.07;100123.28;5093458;28;20035;-53
2021/11/19 04:21:06;;;;;;;37.63;17.02;;;;;;;8.54;67.49;100116.41;5092059;28;20035;-53
2021/11/19 04:23:33;;;;;;;51.25;18.15;;;;;;;8.48;67.66;100113.59;5093364;28;20022;-53
2021/11/19 04:26:01;;;;;;;54.80;19.20;;;;;;;8.49;67.87;100110.81;5091934;28;20085;-53
2021/11/19 04:28:27;;;;;;;44.55;16.25;;;;;;;8.59;68.12;100116.78;5092957;28;20075;-53
2021/11/19 04:30:56;;;;;;;71.28;19.75;;;;;;;8.59;68.55;100111.56;5093105;28;20028;-54
2021/11/19 04:33:23;;;;;;;39.22;17.75;;;;;;;8.83;68.31;100115.28;5093123;28;20107;-52
2021/11/19 04:35:52;;;;;;;30.70;15.82;;;;;;;8.92;67.56;100108.34;5093114;28;20017;-53
2021/11/19 04:38:19;;;;;;;28.17;16.98;;;;;;;9.11;67.23;100107.28;5093041;28;20093;-53
2021/11/19 04:40:45;;;;;;;30.73;15.80;;;;;;;9.24;66.98;100104.25;5093000;28;20020;-53
2021/11/19 04:43:11;;;;;;;46.05;17.90;;;;;;;9.33;66.30;100106.72;5092751;28;20508;-53
2021/11/19 04:45:39;;;;;;;53.38;17.65;;;;;;;9.28;65.90;100106.41;5092968;28;20021;-52
2021/11/19 04:48:06;;;;;;;37.83;18.60;;;;;;;9.14;66.47;100109.59;5091559;28;20024;-52
2021/11/19 04:50:36;;;;;;;71.78;16.92;;;;;;;9.05;66.40;100107.91;5091418;28;20052;-53
2021/11/19 04:53:03;;;;;;;90.50;23.85;;;;;;;8.77;66.84;100108.06;5092755;28;20484;-51
2021/11/19 04:55:29;;;;;;;79.50;16.00;;;;;;;8.49;67.29;100108.19;5092733;28;20020;-52
2021/11/19 04:57:55;;;;;;;34.60;15.93;;;;;;;8.38;67.82;100108.41;5092694;28;20020;-52
2021/11/19 05:00:36;;;;;;;68.38;19.27;;;;;;;8.30;68.30;100103.91;5092664;28;20028;-52
2021/11/19 05:03:03;;;;;;;54.70;23.75;;;;;;;8.25;68.69;100102.72;5092682;28;20409;-52
2021/11/19 05:05:29;;;;;;;36.42;15.40;;;;;;;8.27;68.38;100106.00;5092561;28;20016;-51
2021/11/19 05:07:55;;;;;;;27.88;15.85;;;;;;;8.19;68.66;100110.19;5092509;28;20512;-51
2021/11/19 05:10:21;;;;;;;65.55;48.20;;;;;;;8.17;68.85;100117.38;5092445;28;20435;-51
2021/11/19 05:12:53;;;;;;;49.03;14.88;;;;;;;8.31;68.84;100112.56;5091132;28;20030;-51
2021/11/19 05:15:20;;;;;;;47.60;19.25;;;;;;;8.29;68.56;100106.66;5092468;28;20038;-52
2021/11/19 05:17:46;;;;;;;35.63;16.98;;;;;;;8.16;68.70;100114.91;5092347;28;20574;-51
2021/11/19 05:20:15;;;;;;;136.98;121.90;;;;;;;8.20;68.92;100119.69;5092299;28;20028;-51
2021/11/19 05:22:41;;;;;;;47.10;25.45;;;;;;;8.34;68.90;100126.19;5092288;28;20024;-52
2021/11/19 05:25:09;;;;;;;41.30;21.83;;;;;;;8.46;68.59;100120.75;5090909;28;20024;-51
2021/11/19 05:27:36;;;;;;;42.90;14.95;;;;;;;8.47;68.09;100123.22;5092007;28;20521;-52
2021/11/19 05:30:04;;;;;;;32.20;13.18;;;;;;;8.32;68.44;100122.06;5092018;28;20140;-52
2021/11/19 05:32:30;;;;;;;47.67;22.88;;;;;;;8.12;68.85;100126.63;5092211;28;20016;-51
2021/11/19 05:34:55;;;;;;;38.15;30.42;;;;;;;8.19;69.01;100131.13;5092403;28;20481;-52
2021/11/19 05:37:21;;;;;;;74.78;17.13;;;;;;;8.36;68.63;100131.25;5090828;28;20065;-51
2021/11/19 05:39:47;;;;;;;49.70;24.85;;;;;;;8.36;68.58;100124.22;5092090;28;20023;-51
2021/11/19 05:42:13;;;;;;;31.42;16.58;;;;;;;8.56;68.42;100131.97;5091998;28;20024;-52
2021/11/19 05:44:40;;;;;;;175.25;18.35;;;;;;;8.68;67.68;100130.75;5092041;28;20078;-52
2021/11/19 05:47:08;;;;;;;52.15;15.27;;;;;;;8.55;67.42;100125.06;5091956;28;20020;-52
2021/11/19 05:49:34;;;;;;;35.17;16.35;;;;;;;8.43;68.13;100128.91;5091876;28;20486;-52
2021/11/19 05:52:01;;;;;;;69.75;18.02;;;;;;;8.36;68.04;100139.94;5090571;28;20114;-52
2021/11/19 05:54:29;;;;;;;126.80;16.73;;;;;;;8.31;68.32;100128.25;5091265;28;20024;-52
2021/11/19 05:56:56;;;;;;;49.45;16.08;;;;;;;8.20;69.03;100132.75;5090500;28;20027;-52
2021/11/19 05:59:23;;;;;;;31.25;13.10;;;;;;;8.33;68.76;100132.41;5091870;28;20024;-51
2021/11/19 06:01:49;;;;;;;132.32;17.13;;;;;;;8.21;67.98;100136.22;5091823;28;20511;-52
2021/11/19 06:04:16;;;;;;;30.38;13.68;;;;;;;7.79;68.47;100136.75;5092097;28;20055;-51
2021/11/19 06:06:43;;;;;;;34.45;14.25;;;;;;;7.73;69.67;100130.31;5091701;28;20115;-52
2021/11/19 06:09:16;;;;;;;34.40;13.85;;;;;;;7.83;69.58;100138.09;5091644;28;20378;-52
2021/11/19 06:11:51;;;;;;;72.53;14.27;;;;;;;7.81;68.63;100132.22;5091819;28;20390;-52
2021/11/19 06:14:24;;;;;;;30.13;18.67;;;;;;;7.69;69.52;100131.56;5091746;28;20024;-52
2021/11/19 06:16:58;;;;;;;80.18;65.38;;;;;;;7.57;70.60;100130.94;5091683;28;20118;-52
2021/11/19 06:19:28;;;;;;;27.98;20.13;;;;;;;8.04;69.95;100131.78;5091709;28;20036;-52
2021/11/19 06:22:01;;;;;;;60.22;44.60;;;;;;;8.49;68.64;100136.97;5091948;28;20016;-52
2021/11/19 06:24:34;;;;;;;21.75;12.43;;;;;;;8.53;67.26;100146.19;5091679;28;20536;-51
2021/11/19 06:27:00;;;;;;;38.63;32.53;;;;;;;8.37;67.33;100144.19;5091415;28;20044;-51
2021/11/19 06:29:26;;;;;;;41.30;15.20;;;;;;;8.36;67.19;100145.16;5091557;28;20115;-52
2021/11/19 06:31:55;;;;;;;89.65;75.22;;;;;;;8.20;67.88;100156.28;5091528;28;20103;-52
2021/11/19 06:34:21;;;;;;;34.25;20.25;;;;;;;8.19;68.14;100154.66;5090158;28;20023;-51
2021/11/19 06:36:47;;;;;;;40.58;24.55;;;;;;;8.13;68.00;100152.63;5090508;28;20027;-51
2021/11/19 06:39:15;;;;;;;64.68;35.90;;;;;;;8.12;67.52;100153.59;5091732;28;20496;-51
2021/11/19 06:41:42;;;;;;;34.00;18.50;;;;;;;8.17;68.13;100155.78;5091440;28;20481;-52
2021/11/19 06:44:09;;;;;;;53.80;22.08;;;;;;;8.23;67.94;100163.03;5091485;28;20427;-51
2021/11/19 06:46:35;;;;;;;88.45;79.07;;;;;;;8.24;67.67;100163.84;5091478;28;20389;-52
2021/11/19 06:49:02;;;;;;;58.80;36.67;;;;;;;8.17;67.49;100167.06;5090035;28;20455;-51
2021/11/19 06:51:28;;;;;;;68.68;45.05;;;;;;;8.07;67.93;100171.53;5091334;28;20016;-51
2021/11/19 06:53:54;;;;;;;91.70;73.28;;;;;;;7.98;67.92;100175.00;5090042;28;20031;-51
2021/11/19 06:56:20;;;;;;;36.92;18.70;;;;;;;8.08;67.50;100175.78;5089984;28;20023;-52
2021/11/19 06:58:47;;;;;;;40.83;28.70;;;;;;;8.07;68.16;100176.75;5091257;28;20024;-51
2021/11/19 07:01:13;;;;;;;29.33;19.13;;;;;;;8.09;67.54;100182.66;5090018;28;20028;-52
2021/11/19 07:03:38;;;;;;;25.63;19.42;;;;;;;8.19;67.75;100182.63;5091253;28;20504;-52
2021/11/19 07:06:04;;;;;;;66.90;48.08;;;;;;;8.13;66.93;100181.41;5092585;28;20103;-51
2021/11/19 07:08:31;;;;;;;49.38;30.27;;;;;;;8.11;67.23;100183.34;5093763;28;20024;-51
2021/11/19 07:11:09;;;;;;;152.32;128.77;;;;;;;8.23;67.76;100183.13;5094695;28;20493;-51
2021/11/19 07:13:35;;;;;;;64.63;24.40;;;;;;;8.35;67.04;100182.78;5094847;28;20028;-51
2021/11/19 07:16:02;;;;;;;70.28;42.13;;;;;;;8.21;67.45;100180.66;5094676;28;20028;-51
2021/11/19 07:18:28;;;;;;;125.13;111.60;;;;;;;8.14;67.73;100177.81;5094594;28;20054;-51
2021/11/19 07:20:55;;;;;;;87.82;70.45;;;;;;;8.19;67.18;100183.44;5094615;28;20024;-52
2021/11/19 07:23:22;;;;;;;66.82;38.20;;;;;;;8.37;67.48;100175.59;5094862;28;20111;-52
2021/11/19 07:25:48;;;;;;;143.57;107.03;;;;;;;8.34;66.61;100178.50;5094509;28;20028;-52
2021/11/19 07:28:16;;;;;;;911.38;624.88;;;;;;;8.30;67.05;100177.16;5094260;28;20104;-52
2021/11/19 07:30:52;;;;;;;359.83;230.10;;;;;;;8.37;67.16;100179.97;5094353;28;20098;-52
2021/11/19 07:33:19;;;;;;;94.85;64.85;;;;;;;8.45;67.11;100184.50;5093102;28;20036;-51
2021/11/19 07:35:46;;;;;;;131.25;112.97;;;;;;;8.47;67.57;100179.94;5094321;28;20028;-52
2021/11/19 07:38:12;;;;;;;37.65;21.15;;;;;;;8.52;66.42;100178.53;5094256;28;20024;-51
2021/11/19 07:40:41;;;;;;;32.83;16.92;;;;;;;8.54;66.23;100181.81;5094258;28;20020;-52
2021/11/19 07:43:08;;;;;;;23.80;17.58;;;;;;;8.53;65.82;100179.34;5094243;28;20024;-52
2021/11/19 07:45:37;;;;;;;1999.90;999.90;;;;;;;8.49;66.65;100178.84;5092835;28;20069;-51
2021/11/19 07:48:07;;;;;;;1155.28;724.72;;;;;;;8.67;66.96;100180.63;5092806;28;20028;-51
2021/11/19 07:50:33;;;;;;;1257.38;677.78;;;;;;;8.92;66.33;100184.25;5094242;28;20016;-52
2021/11/19 07:52:59;;;;;;;899.03;607.45;;;;;;;8.89;65.67;100174.06;5075739;28;20520;-51
2021/11/19 07:55:25;;;;;;;1999.90;840.05;;;;;;;8.95;65.51;100181.31;5092604;28;20153;-52
2021/11/19 07:57:52;;;;;;;316.65;188.00;;;;;;;8.87;64.90;100183.88;5092573;28;20028;-51
2021/11/19 08:00:22;;;;;;;662.60;469.13;;;;;;;8.77;65.23;100179.56;5094055;28;20024;-51
2021/11/19 08:02:48;;;;;;;188.10;139.90;;;;;;;8.79;65.30;100188.09;5093800;28;20031;-52
2021/11/19 08:05:14;;;;;;;77.30;56.75;;;;;;;8.87;65.15;100183.88;5093678;28;20024;-51
2021/11/19 08:07:40;;;;;;;41.30;26.98;;;;;;;8.98;65.12;100188.88;5093703;28;20028;-52
2021/11/19 08:10:07;;;;;;;84.00;70.30;;;;;;;9.00;64.87;100194.78;5093506;28;20101;-52
2021/11/19 08:12:33;;;;;;;44.53;34.03;;;;;;;9.09;65.11;100200.91;5093571;28;20053;-51
2021/11/19 08:14:59;;;;;;;54.33;41.30;;;;;;;9.11;64.38;100197.13;5093592;28;20486;-52
2021/11/19 08:17:35;;;;;;;26.77;18.52;;;;;;;9.16;63.99;100200.13;5091530;28;20082;-52
2021/11/19 08:20:05;;;;;;;79.40;69.38;;;;;;;9.13;64.02;100203.03;5093481;28;20040;-52
2021/11/19 08:22:33;;;;;;;27.17;17.15;;;;;;;9.19;63.91;100206.84;5093832;28;20123;-52
2021/11/19 08:24:59;;;;;;;29.17;18.05;;;;;;;9.24;63.87;100193.31;5093335;28;20098;-51
2021/11/19 08:27:32;;;;;;;31.55;24.10;;;;;;;9.08;63.87;100201.88;5093037;28;20039;-52
2021/11/19 08:30:01;;;;;;;23.90;15.90;;;;;;;9.05;64.19;100196.94;5093249;28;20051;-52
2021/11/19 08:32:27;;;;;;;42.00;23.33;;;;;;;9.11;63.65;100188.47;5093195;28;20024;-51
2021/11/19 08:34:55;;;;;;;31.75;25.30;;;;;;;9.25;64.51;100197.56;5093047;28;20413;-52
2021/11/19 08:37:23;;;;;;;29.38;23.05;;;;;;;9.47;62.98;100197.03;5093150;28;20176;-51
2021/11/19 08:39:49;;;;;;;23.48;20.60;;;;;;;9.31;62.64;100189.91;5093112;28;20027;-52
2021/11/19 08:42:16;;;;;;;274.60;248.90;;;;;;;9.31;63.70;100184.66;5091660;28;20047;-52
2021/11/19 08:44:44;;;;;;;29.25;25.48;;;;;;;9.58;62.66;100180.25;5092970;28;20547;-52
2021/11/19 08:47:18;;;;;;;51.80;45.17;;;;;;;9.79;62.50;100183.25;5091554;28;20024;-53
2021/11/19 08:49:45;;;;;;;40.05;30.05;;;;;;;10.14;61.59;100180.56;5092828;28;20081;-52
2021/11/19 08:52:15;;;;;;;30.27;18.73;;;;;;;10.27;60.67;100178.31;5092837;28;20016;-52
2021/11/19 08:54:42;;;;;;;28.02;25.00;;;;;;;10.02;59.63;100182.69;5092751;28;20028;-53
2021/11/19 08:57:12;;;;;;;26.33;23.30;;;;;;;9.85;60.79;100186.25;5092778;28;20085;-52
2021/11/19 08:59:45;;;;;;;103.20;91.75;;;;;;;9.93;61.20;100187.06;5092759;28;20032;-52
2021/11/19 09:02:13;;;;;;;123.22;110.82;;;;;;;10.14;60.67;100193.69;5092710;28;20103;-53
2021/11/19 09:04:39;;;;;;;147.25;131.65;;;;;;;10.45;60.72;100177.41;5092561;28;20020;-53
2021/11/19 09:07:05;;;;;;;127.22;114.50;;;;;;;10.83;59.77;100183.81;5092580;28;20440;-53
2021/11/19 09:09:33;;;;;;;366.65;277.05;;;;;;;11.05;58.80;100177.06;5092394;28;20569;-52
2021/11/19 09:11:59;;;;;;;82.28;62.22;;;;;;;11.25;57.64;100179.31;5092762;28;20062;-52
2021/11/19 09:14:25;;;;;;;194.90;175.27;;;;;;;11.37;57.15;100175.34;5092433;28;20081;-53
2021/11/19 09:17:38;;;;;;;115.22;86.40;;;;;;;11.55;57.54;100181.22;5092433;28;20043;-53
2021/11/19 09:20:37;;;;;;;78.47;67.28;;;;;;;11.72;56.50;100179.34;5092400;28;20032;-52
2021/11/19 09:23:11;;;;;;;448.80;402.65;;;;;;;11.68;56.32;100178.03;5092674;28;20032;-51
2021/11/19 09:25:40;;;;;;;65.40;58.40;;;;;;;11.98;55.57;100180.91;5092282;28;20031;-53
2021/11/19 09:28:09;;;;;;;63.47;56.20;;;;;;;12.24;55.04;100185.03;5092059;28;20441;-53
2021/11/19 09:30:38;;;;;;;49.53;41.00;;;;;;;12.22;54.51;100176.50;5091199;28;20540;-53
2021/11/19 09:33:11;;;;;;;22.90;16.98;;;;;;;12.02;54.62;100184.00;5092201;28;20024;-53
2021/11/19 09:35:37;;;;;;;35.50;17.75;;;;;;;11.57;55.17;100181.06;5092155;28;20032;-53
2021/11/19 09:38:06;;;;;;;24.27;16.40;;;;;;;11.20;55.86;100192.97;5092133;28;20484;-53
2021/11/19 09:40:54;;;;;;;29.38;16.15;;;;;;;10.79;57.29;100180.69;5092045;28;20028;-53
2021/11/19 09:43:44;;;;;;;26.10;14.57;;;;;;;10.74;57.65;100185.59;5092103;28;20108;-53
2021/11/19 09:46:15;;;;;;;28.05;17.05;;;;;;;10.85;58.40;100184.47;5091985;28;20028;-53
2021/11/19 09:49:08;;;;;;;31.17;17.40;;;;;;;11.09;57.72;100185.44;5092063;28;20513;-53
2021/11/19 09:51:58;;;;;;;41.75;19.10;;;;;;;11.41;56.88;100184.53;5091935;28;20052;-54
2021/11/19 09:54:48;;;;;;;36.97;20.83;;;;;;;11.60;56.42;100185.94;5091936;28;20071;-53
2021/11/19 09:57:47;;;;;;;50.67;20.88;;;;;;;11.61;56.42;100190.25;5091918;28;20512;-53
2021/11/19 10:00:24;;;;;;;26.38;14.40;;;;;;;11.68;55.89;100185.13;5090558;28;20130;-53
2021/11/19 10:03:08;;;;;;;30.25;17.65;;;;;;;11.32;56.68;100186.34;5091837;28;20020;-53
2021/11/19 10:05:45;;;;;;;41.60;28.88;;;;;;;11.39;56.75;100191.78;5091848;28;20024;-53
2021/11/19 10:08:32;;;;;;;26.83;18.20;;;;;;;11.60;56.60;100178.06;5091864;28;20024;-53
2021/11/19 10:11:08;;;;;;;22.67;15.27;;;;;;;11.77;56.37;100177.03;5091668;28;20027;-53
2021/11/19 10:14:01;;;;;;;33.97;19.52;;;;;;;11.85;55.54;100178.81;5091836;28;20050;-53
2021/11/19 10:16:41;;;;;;;44.00;31.15;;;;;;;11.62;55.76;100178.72;5090395;28;20085;-53
2021/11/19 10:19:21;;;;;;;27.30;15.43;;;;;;;11.47;56.22;100173.34;5091710;28;20056;-53
2021/11/19 10:22:05;;;;;;;33.42;16.60;;;;;;;11.26;56.73;100173.88;5091661;28;20101;-53
2021/11/19 10:24:56;;;;;;;31.15;19.05;;;;;;;11.30;57.05;100166.50;5091688;28;20031;-53
2021/11/19 10:27:27;;;;;;;24.38;15.48;;;;;;;11.44;56.36;100165.78;5091436;28;20079;-53
2021/11/19 10:29:59;;;;;;;30.42;15.80;;;;;;;11.42;56.62;100165.16;5091531;28;20528;-53
2021/11/19 10:32:29;;;;;;;23.75;15.38;;;;;;;11.36;56.71;100161.38;5091640;28;20027;-53
2021/11/19 10:35:53;;;;;;;25.65;15.10;;;;;;;11.32;56.63;100159.25;5091519;28;20024;-53
2021/11/19 10:38:59;;;;;;;24.90;16.10;;;;;;;11.14;57.03;100155.03;5067766;28;20024;-53
2021/11/19 10:41:28;;;;;;;34.15;17.00;;;;;;;10.99;57.28;100154.09;5093549;28;20028;-53
2021/11/19 10:44:08;;;;;;;42.35;18.10;;;;;;;10.84;57.61;100148.66;5095360;28;20028;-53
2021/11/19 10:47:05;;;;;;;38.13;18.33;;;;;;;10.71;58.15;100151.00;5094005;28;20535;-53
2021/11/19 10:49:43;;;;;;;33.17;18.30;;;;;;;10.71;58.25;100145.75;5095189;28;20024;-53
2021/11/19 10:52:52;;;;;;;40.97;17.17;;;;;;;10.83;58.08;100144.41;5095211;28;20024;-53
2021/11/19 10:55:27;;;;;;;25.77;16.60;;;;;;;10.93;57.94;100133.75;5095176;28;20062;-53
2021/11/19 10:57:59;;;;;;;31.20;16.70;;;;;;;11.05;57.76;100132.41;5095142;28;20024;-53
2021/11/19 11:01:02;;;;;;;28.23;16.88;;;;;;;11.12;57.55;100129.91;5095041;28;20031;-52
2021/11/19 11:03:37;;;;;;;34.90;17.25;;;;;;;11.23;57.47;100129.56;5095029;28;20024;-53
2021/11/19 11:06:15;;;;;;;31.42;16.33;;;;;;;11.35;57.14;100122.94;5093693;28;20786;-53
2021/11/19 11:08:45;;;;;;;31.15;16.70;;;;;;;11.45;57.05;100112.25;5093645;28;20052;-53
2021/11/19 11:11:19;;;;;;;28.05;16.52;;;;;;;11.54;56.59;100111.19;5094801;28;20024;-53
2021/11/19 11:14:04;;;;;;;26.90;17.60;;;;;;;11.49;56.59;100117.94;5094943;28;20051;-52
2021/11/19 11:16:43;;;;;;;26.85;18.15;;;;;;;11.46;56.44;100113.06;5094769;28;20494;-53
2021/11/19 11:19:12;;;;;;;30.17;19.40;;;;;;;11.39;56.87;100105.84;5094696;28;20020;-53
2021/11/19 11:21:57;;;;;;;32.67;22.45;;;;;;;11.27;57.28;100109.00;5094673;28;20089;-53
2021/11/19 11:24:32;;;;;;;30.20;18.23;;;;;;;11.15;57.65;100104.13;5094693;28;20032;-53
2021/11/19 11:27:28;;;;;;;30.60;19.13;;;;;;;11.36;57.42;100098.28;5094314;28;20048;-53
2021/11/19 11:29:56;;;;;;;;;;;;;;;11.64;56.99;100102.28;5094893;28;20023;-53
2021/11/19 11:32:31;;;;;;;26.48;18.00;;;;;;;11.91;56.17;100095.75;5093073;28;20304;-53
2021/11/19 11:35:06;;;;;;;27.25;16.90;;;;;;;11.74;55.86;100084.47;5094488;28;20430;-53